LOT4YA EPKK-EPSY
Flight info
| Callsign | LOT4YA |
|---|---|
| Flight time | 0h 46m |
| Altitude | 28000 |
| Route | NAVUR DCT OVBOR N133 IRBOS DCT RILAB DCT VEKAV T720 IBINO |
| Aircraft | B738/M-SDE2E3FGHIRWXY/LB1 |
Departure
| Time | 2026-04-26 17:50 |
|---|---|
| Airport | Kraków John Paul II International Airport (EPKK) |
Arrival
| Time | 2026-04-26 18:36 |
|---|---|
| Airport | Olsztyn-Mazury Airport (EPSY) |
| Time | Latitude | Longitude | Altitude | Speed | Heading |
|---|---|---|---|---|---|
| 2026-04-26 17:03 | 50.07677 | 19.80081 | 799 ft | 0 kts | 348° |
| 2026-04-26 17:47 | 50.07676 | 19.80081 | 799 ft | 0 kts | 348° |
| 2026-04-26 17:47 | 50.07687 | 19.80077 | 799 ft | 4 kts | 348° |
| 2026-04-26 17:48 | 50.07724 | 19.80073 | 799 ft | 7 kts | 15° |
| 2026-04-26 17:48 | 50.07750 | 19.80142 | 799 ft | 10 kts | 78° |
| 2026-04-26 17:48 | 50.07766 | 19.80263 | 799 ft | 13 kts | 78° |
| 2026-04-26 17:48 | 50.07811 | 19.80342 | 799 ft | 10 kts | 6° |
| 2026-04-26 17:49 | 50.07882 | 19.80325 | 799 ft | 11 kts | 349° |
| 2026-04-26 17:49 | 50.07989 | 19.80279 | 799 ft | 20 kts | 327° |
| 2026-04-26 17:49 | 50.07985 | 19.79995 | 800 ft | 53 kts | 258° |
| 2026-04-26 17:49 | 50.07851 | 19.79029 | 800 ft | 127 kts | 257° |
| 2026-04-26 17:50 | 50.07624 | 19.77434 | 1034 ft | 163 kts | 257° |
| 2026-04-26 17:50 | 50.07358 | 19.75698 | 1860 ft | 167 kts | 260° |
| 2026-04-26 17:50 | 50.07110 | 19.73950 | 2752 ft | 167 kts | 262° |
| 2026-04-26 17:50 | 50.06841 | 19.72032 | 3157 ft | 197 kts | 261° |
| 2026-04-26 17:51 | 50.06525 | 19.69813 | 3405 ft | 223 kts | 261° |
| 2026-04-26 17:51 | 50.06262 | 19.67335 | 3918 ft | 231 kts | 276° |
| 2026-04-26 17:51 | 50.06736 | 19.65038 | 4754 ft | 227 kts | 305° |
| 2026-04-26 17:51 | 50.07891 | 19.63292 | 5308 ft | 242 kts | 331° |
| 2026-04-26 17:52 | 50.09533 | 19.62575 | 6021 ft | 251 kts | 355° |
| 2026-04-26 17:52 | 50.11292 | 19.62835 | 6880 ft | 256 kts | 7° |
| 2026-04-26 17:52 | 50.13050 | 19.63358 | 7817 ft | 256 kts | 8° |
| 2026-04-26 17:52 | 50.14781 | 19.63914 | 8870 ft | 253 kts | 8° |
| 2026-04-26 17:53 | 50.16518 | 19.64474 | 9856 ft | 254 kts | 7° |
| 2026-04-26 17:53 | 50.18235 | 19.65024 | 10717 ft | 260 kts | 7° |
| 2026-04-26 17:53 | 50.20114 | 19.65612 | 10999 ft | 286 kts | 7° |
| 2026-04-26 17:54 | 50.24337 | 19.66915 | 11408 ft | 334 kts | 7° |
| 2026-04-26 17:54 | 50.26672 | 19.67640 | 11904 ft | 346 kts | 7° |
| 2026-04-26 17:54 | 50.29042 | 19.68380 | 12681 ft | 349 kts | 7° |
| 2026-04-26 17:54 | 50.31437 | 19.69129 | 13541 ft | 352 kts | 6° |
| 2026-04-26 17:55 | 50.33852 | 19.69883 | 14348 ft | 355 kts | 6° |
| 2026-04-26 17:55 | 50.36286 | 19.70641 | 15135 ft | 358 kts | 6° |
| 2026-04-26 17:55 | 50.38729 | 19.71402 | 15996 ft | 359 kts | 6° |
| 2026-04-26 17:55 | 50.41199 | 19.72169 | 16766 ft | 362 kts | 6° |
| 2026-04-26 17:56 | 50.43657 | 19.72932 | 17473 ft | 366 kts | 5° |
| 2026-04-26 17:56 | 50.48736 | 19.73804 | 18729 ft | 369 kts | 352° |
| 2026-04-26 17:57 | 50.53909 | 19.73237 | 19914 ft | 376 kts | 352° |
| 2026-04-26 17:57 | 50.56525 | 19.72959 | 20484 ft | 380 kts | 352° |
| 2026-04-26 17:57 | 50.59181 | 19.72687 | 21044 ft | 383 kts | 352° |
| 2026-04-26 17:57 | 50.61846 | 19.72422 | 21752 ft | 383 kts | 351° |
| 2026-04-26 17:58 | 50.69984 | 19.72161 | 23357 ft | 397 kts | 356° |
| 2026-04-26 17:59 | 50.75533 | 19.72689 | 24256 ft | 405 kts | 357° |
| 2026-04-26 17:59 | 50.78355 | 19.72971 | 24671 ft | 408 kts | 357° |
| 2026-04-26 17:59 | 50.81196 | 19.73244 | 25069 ft | 410 kts | 356° |
| 2026-04-26 17:59 | 50.84049 | 19.73508 | 25485 ft | 413 kts | 356° |
| 2026-04-26 18:00 | 50.86916 | 19.73765 | 25930 ft | 414 kts | 356° |
| 2026-04-26 18:00 | 50.89803 | 19.74017 | 26301 ft | 416 kts | 356° |
| 2026-04-26 18:00 | 50.92713 | 19.74267 | 26708 ft | 418 kts | 356° |
| 2026-04-26 18:00 | 50.95614 | 19.74517 | 27183 ft | 417 kts | 356° |
| 2026-04-26 18:01 | 50.98527 | 19.74766 | 27217 ft | 419 kts | 356° |
| 2026-04-26 18:01 | 51.01427 | 19.75016 | 27229 ft | 416 kts | 356° |
| 2026-04-26 18:01 | 51.04276 | 19.75261 | 27212 ft | 416 kts | 356° |
| 2026-04-26 18:01 | 51.07177 | 19.75508 | 27227 ft | 419 kts | 356° |
| 2026-04-26 18:02 | 51.10103 | 19.75756 | 27248 ft | 421 kts | 356° |
| 2026-04-26 18:02 | 51.12045 | 19.75922 | 27244 ft | 422 kts | 356° |
| 2026-04-26 18:02 | 51.15979 | 19.76259 | 27234 ft | 423 kts | 356° |
| 2026-04-26 18:02 | 51.18908 | 19.76512 | 27231 ft | 422 kts | 356° |
| 2026-04-26 18:03 | 51.21837 | 19.76766 | 27237 ft | 421 kts | 356° |
| 2026-04-26 18:03 | 51.24756 | 19.77020 | 27235 ft | 419 kts | 356° |
| 2026-04-26 18:03 | 51.27672 | 19.77274 | 27235 ft | 418 kts | 356° |
| 2026-04-26 18:03 | 51.30572 | 19.77525 | 27235 ft | 417 kts | 356° |
| 2026-04-26 18:04 | 51.33472 | 19.77777 | 27269 ft | 415 kts | 356° |
| 2026-04-26 18:04 | 51.35378 | 19.77942 | 27242 ft | 415 kts | 356° |
| 2026-04-26 18:04 | 51.39226 | 19.78276 | 27233 ft | 413 kts | 356° |
| 2026-04-26 18:05 | 51.44923 | 19.78772 | 27233 ft | 411 kts | 356° |
| 2026-04-26 18:05 | 51.47776 | 19.79020 | 27232 ft | 410 kts | 356° |
| 2026-04-26 18:05 | 51.50631 | 19.79268 | 27240 ft | 410 kts | 356° |
| 2026-04-26 18:05 | 51.53473 | 19.79516 | 27237 ft | 410 kts | 356° |
| 2026-04-26 18:06 | 51.56337 | 19.79765 | 27240 ft | 410 kts | 356° |
| 2026-04-26 18:06 | 51.59187 | 19.80014 | 27253 ft | 411 kts | 356° |
| 2026-04-26 18:06 | 51.62010 | 19.80261 | 27246 ft | 411 kts | 356° |
| 2026-04-26 18:06 | 51.64864 | 19.80511 | 27243 ft | 411 kts | 356° |
| 2026-04-26 18:07 | 51.67716 | 19.80762 | 27236 ft | 410 kts | 356° |
| 2026-04-26 18:07 | 51.70569 | 19.81013 | 27235 ft | 410 kts | 356° |
| 2026-04-26 18:07 | 51.73419 | 19.81264 | 27238 ft | 410 kts | 356° |
| 2026-04-26 18:07 | 51.75346 | 19.81434 | 27238 ft | 410 kts | 356° |
| 2026-04-26 18:08 | 51.79120 | 19.81768 | 27239 ft | 410 kts | 356° |
| 2026-04-26 18:08 | 51.81974 | 19.82020 | 27232 ft | 410 kts | 356° |
| 2026-04-26 18:08 | 51.84823 | 19.82272 | 27211 ft | 410 kts | 356° |
| 2026-04-26 18:08 | 51.87681 | 19.82525 | 27229 ft | 411 kts | 356° |
| 2026-04-26 18:09 | 51.90505 | 19.82775 | 27233 ft | 412 kts | 356° |
| 2026-04-26 18:09 | 51.93369 | 19.83029 | 27241 ft | 412 kts | 356° |
| 2026-04-26 18:09 | 51.96238 | 19.83285 | 27240 ft | 413 kts | 356° |
| 2026-04-26 18:09 | 51.99133 | 19.83544 | 27239 ft | 414 kts | 356° |
| 2026-04-26 18:10 | 52.02005 | 19.83801 | 27238 ft | 415 kts | 356° |
| 2026-04-26 18:10 | 52.04894 | 19.84060 | 27234 ft | 415 kts | 356° |
| 2026-04-26 18:10 | 52.07771 | 19.84319 | 27255 ft | 415 kts | 356° |
| 2026-04-26 18:10 | 52.10654 | 19.84578 | 27242 ft | 414 kts | 356° |
| 2026-04-26 18:11 | 52.13537 | 19.84839 | 27235 ft | 413 kts | 356° |
| 2026-04-26 18:11 | 52.16407 | 19.85097 | 27235 ft | 412 kts | 356° |
| 2026-04-26 18:11 | 52.19270 | 19.85356 | 27236 ft | 411 kts | 356° |
| 2026-04-26 18:11 | 52.22125 | 19.85614 | 27238 ft | 410 kts | 356° |
| 2026-04-26 18:12 | 52.24938 | 19.85867 | 27239 ft | 410 kts | 356° |
| 2026-04-26 18:12 | 52.27785 | 19.86123 | 27234 ft | 409 kts | 356° |
| 2026-04-26 18:12 | 52.30628 | 19.86378 | 27236 ft | 409 kts | 356° |
| 2026-04-26 18:12 | 52.33476 | 19.86635 | 27250 ft | 409 kts | 356° |
| 2026-04-26 18:13 | 52.36326 | 19.86892 | 27242 ft | 408 kts | 356° |
| 2026-04-26 18:13 | 52.39169 | 19.87149 | 27237 ft | 408 kts | 356° |
| 2026-04-26 18:13 | 52.41970 | 19.87403 | 27236 ft | 408 kts | 356° |
| 2026-04-26 18:13 | 52.42932 | 19.87491 | 27237 ft | 407 kts | 356° |
| 2026-04-26 18:14 | 52.47636 | 19.87920 | 27239 ft | 407 kts | 356° |
| 2026-04-26 18:14 | 52.50479 | 19.88181 | 27239 ft | 407 kts | 356° |
| 2026-04-26 18:14 | 52.53309 | 19.88440 | 27239 ft | 407 kts | 356° |
| 2026-04-26 18:14 | 52.56146 | 19.88700 | 27280 ft | 407 kts | 356° |
| 2026-04-26 18:15 | 52.58949 | 19.88956 | 27253 ft | 408 kts | 356° |
| 2026-04-26 18:15 | 52.61780 | 19.89217 | 27250 ft | 407 kts | 356° |
| 2026-04-26 18:15 | 52.64616 | 19.89478 | 27246 ft | 407 kts | 356° |
| 2026-04-26 18:15 | 52.67443 | 19.89738 | 27240 ft | 407 kts | 356° |
| 2026-04-26 18:16 | 52.70265 | 19.89998 | 27239 ft | 406 kts | 356° |
| 2026-04-26 18:16 | 52.74957 | 19.90431 | 27240 ft | 406 kts | 356° |
| 2026-04-26 18:16 | 52.77783 | 19.90691 | 27070 ft | 408 kts | 356° |
| 2026-04-26 18:17 | 52.80616 | 19.90952 | 26802 ft | 406 kts | 356° |
| 2026-04-26 18:17 | 52.84347 | 19.91299 | 26512 ft | 403 kts | 356° |
| 2026-04-26 18:17 | 52.87158 | 19.91561 | 26263 ft | 404 kts | 356° |
| 2026-04-26 18:17 | 52.89972 | 19.91821 | 26016 ft | 405 kts | 356° |
| 2026-04-26 18:18 | 52.91841 | 19.91994 | 25854 ft | 405 kts | 356° |
| 2026-04-26 18:18 | 52.94651 | 19.92257 | 25140 ft | 402 kts | 356° |
| 2026-04-26 18:18 | 52.97429 | 19.92518 | 24310 ft | 397 kts | 356° |
| 2026-04-26 18:18 | 53.00170 | 19.92778 | 23435 ft | 392 kts | 356° |
| 2026-04-26 18:19 | 53.02873 | 19.93034 | 22551 ft | 385 kts | 357° |
| 2026-04-26 18:19 | 53.05521 | 19.93291 | 21764 ft | 378 kts | 357° |
| 2026-04-26 18:19 | 53.08126 | 19.93552 | 21022 ft | 371 kts | 358° |
| 2026-04-26 18:19 | 53.10530 | 19.93784 | 20296 ft | 365 kts | 357° |
| 2026-04-26 18:20 | 53.13017 | 19.94015 | 19542 ft | 360 kts | 357° |
| 2026-04-26 18:20 | 53.15501 | 19.94244 | 18802 ft | 355 kts | 358° |
| 2026-04-26 18:20 | 53.17954 | 19.94471 | 17995 ft | 352 kts | 358° |
| 2026-04-26 18:20 | 53.19611 | 19.94626 | 17445 ft | 351 kts | 358° |
| 2026-04-26 18:21 | 53.22816 | 19.94924 | 16428 ft | 346 kts | 358° |
| 2026-04-26 18:21 | 53.25230 | 19.95147 | 15699 ft | 348 kts | 358° |
| 2026-04-26 18:21 | 53.27650 | 19.95373 | 14972 ft | 348 kts | 359° |
| 2026-04-26 18:21 | 53.30057 | 19.95601 | 14222 ft | 344 kts | 359° |
| 2026-04-26 18:22 | 53.32446 | 19.95827 | 13339 ft | 343 kts | 359° |
| 2026-04-26 18:22 | 53.34822 | 19.96052 | 12486 ft | 340 kts | 359° |
| 2026-04-26 18:22 | 53.37182 | 19.96276 | 11635 ft | 339 kts | 360° |
| 2026-04-26 18:22 | 53.39528 | 19.96499 | 11009 ft | 333 kts | 0° |
| 2026-04-26 18:23 | 53.41777 | 19.96717 | 10909 ft | 316 kts | 0° |
| 2026-04-26 18:23 | 53.43909 | 19.96921 | 10763 ft | 305 kts | 360° |
| 2026-04-26 18:23 | 53.46001 | 19.97121 | 10684 ft | 299 kts | 360° |
| 2026-04-26 18:23 | 53.48092 | 19.97363 | 10567 ft | 300 kts | 4° |
| 2026-04-26 18:24 | 53.50029 | 19.98539 | 10422 ft | 297 kts | 27° |
| 2026-04-26 18:24 | 53.51549 | 20.00852 | 10308 ft | 295 kts | 46° |
| 2026-04-26 18:24 | 53.52528 | 20.03860 | 10215 ft | 294 kts | 65° |
| 2026-04-26 18:24 | 53.52873 | 20.07237 | 10124 ft | 293 kts | 83° |
| 2026-04-26 18:25 | 53.52592 | 20.10625 | 9946 ft | 296 kts | 104° |
| 2026-04-26 18:25 | 53.51768 | 20.13812 | 9628 ft | 296 kts | 112° |
| 2026-04-26 18:25 | 53.50841 | 20.16901 | 9322 ft | 295 kts | 113° |
| 2026-04-26 18:25 | 53.49909 | 20.19954 | 9015 ft | 293 kts | 112° |
| 2026-04-26 18:26 | 53.49000 | 20.22951 | 8726 ft | 291 kts | 112° |
| 2026-04-26 18:26 | 53.48094 | 20.25974 | 8419 ft | 289 kts | 112° |
| 2026-04-26 18:26 | 53.47197 | 20.28990 | 8117 ft | 287 kts | 112° |
| 2026-04-26 18:26 | 53.46308 | 20.31981 | 7828 ft | 286 kts | 112° |
| 2026-04-26 18:27 | 53.45423 | 20.34957 | 7526 ft | 284 kts | 112° |
| 2026-04-26 18:27 | 53.44541 | 20.37916 | 7237 ft | 283 kts | 112° |
| 2026-04-26 18:27 | 53.43662 | 20.40855 | 6958 ft | 281 kts | 112° |
| 2026-04-26 18:27 | 53.42784 | 20.43784 | 6669 ft | 279 kts | 112° |
| 2026-04-26 18:28 | 53.41914 | 20.46687 | 6375 ft | 277 kts | 112° |
| 2026-04-26 18:28 | 53.41051 | 20.49565 | 6086 ft | 275 kts | 112° |
| 2026-04-26 18:28 | 53.40194 | 20.52421 | 5812 ft | 273 kts | 112° |
| 2026-04-26 18:28 | 53.39353 | 20.55222 | 5543 ft | 271 kts | 112° |
| 2026-04-26 18:29 | 53.38506 | 20.58036 | 5267 ft | 269 kts | 112° |
| 2026-04-26 18:29 | 53.37662 | 20.60836 | 4986 ft | 268 kts | 112° |
| 2026-04-26 18:29 | 53.36823 | 20.63614 | 4709 ft | 265 kts | 112° |
| 2026-04-26 18:29 | 53.35930 | 20.66322 | 4444 ft | 268 kts | 120° |
| 2026-04-26 18:30 | 53.34792 | 20.68808 | 4290 ft | 267 kts | 126° |
| 2026-04-26 18:30 | 53.33674 | 20.71226 | 4161 ft | 259 kts | 122° |
| 2026-04-26 18:30 | 53.32698 | 20.73693 | 4040 ft | 250 kts | 117° |
| 2026-04-26 18:30 | 53.31879 | 20.76201 | 3936 ft | 241 kts | 111° |
| 2026-04-26 18:31 | 53.31191 | 20.78703 | 3827 ft | 232 kts | 108° |
| 2026-04-26 18:31 | 53.30660 | 20.81150 | 3729 ft | 221 kts | 94° |
| 2026-04-26 18:31 | 53.30871 | 20.83477 | 3582 ft | 193 kts | 50° |
| 2026-04-26 18:31 | 53.31862 | 20.84660 | 3410 ft | 169 kts | 9° |
| 2026-04-26 18:32 | 53.32971 | 20.85167 | 3220 ft | 165 kts | 17° |
| 2026-04-26 18:32 | 53.34048 | 20.85902 | 3079 ft | 168 kts | 18° |
| 2026-04-26 18:32 | 53.35135 | 20.86525 | 3010 ft | 163 kts | 12° |
| 2026-04-26 18:32 | 53.36210 | 20.87069 | 2852 ft | 163 kts | 13° |
| 2026-04-26 18:33 | 53.37295 | 20.87660 | 2626 ft | 160 kts | 14° |
| 2026-04-26 18:33 | 53.38322 | 20.88233 | 2417 ft | 155 kts | 14° |
| 2026-04-26 18:33 | 53.39316 | 20.88793 | 2185 ft | 145 kts | 14° |
| 2026-04-26 18:33 | 53.40231 | 20.89307 | 2026 ft | 131 kts | 13° |
| 2026-04-26 18:34 | 53.41052 | 20.89768 | 1811 ft | 118 kts | 12° |
| 2026-04-26 18:34 | 53.41805 | 20.90189 | 1649 ft | 112 kts | 13° |
| 2026-04-26 18:34 | 53.42557 | 20.90586 | 1511 ft | 116 kts | 14° |
| 2026-04-26 18:34 | 53.43328 | 20.91044 | 1327 ft | 117 kts | 13° |
| 2026-04-26 18:35 | 53.44113 | 20.91478 | 1138 ft | 119 kts | 12° |
| 2026-04-26 18:35 | 53.44891 | 20.91917 | 952 ft | 119 kts | 14° |
| 2026-04-26 18:35 | 53.45666 | 20.92362 | 786 ft | 118 kts | 13° |
| 2026-04-26 18:35 | 53.46441 | 20.92793 | 645 ft | 117 kts | 14° |
| 2026-04-26 18:36 | 53.47224 | 20.93231 | 482 ft | 119 kts | 15° |
| 2026-04-26 18:36 | 53.47945 | 20.93633 | 458 ft | 93 kts | 19° |
| 2026-04-26 18:36 | 53.48414 | 20.93897 | 469 ft | 48 kts | 18° |
| 2026-04-26 18:36 | 53.48695 | 20.94056 | 466 ft | 28 kts | 19° |
| 2026-04-26 18:37 | 53.48784 | 20.94274 | 466 ft | 19 kts | 98° |
| 2026-04-26 18:37 | 53.48773 | 20.94335 | 466 ft | 0 kts | 108° |
| 2026-04-26 18:38 | 53.48757 | 20.94416 | 463 ft | 8 kts | 108° |
| 2026-04-26 18:38 | 53.48745 | 20.94475 | 466 ft | 2 kts | 108° |
| 2026-04-26 18:38 | 53.48741 | 20.94495 | 462 ft | 0 kts | 108° |